sensor_id;sensor_type;location;lat;lon;timestamp;P1;durP1;ratioP1;P2;durP2;ratioP2
36715;SDS011;22699;51.034;3.730;2022-08-18T00:01:46;79.88;;;64.60;;
36715;SDS011;22699;51.034;3.730;2022-08-18T00:04:15;86.53;;;66.45;;
36715;SDS011;22699;51.034;3.730;2022-08-18T00:06:41;83.15;;;65.28;;
36715;SDS011;22699;51.034;3.730;2022-08-18T00:09:07;84.72;;;66.07;;
36715;SDS011;22699;51.034;3.730;2022-08-18T00:11:35;81.20;;;64.47;;
36715;SDS011;22699;51.034;3.730;2022-08-18T00:14:04;90.75;;;70.50;;
36715;SDS011;22699;51.034;3.730;2022-08-18T00:16:30;88.93;;;68.43;;
36715;SDS011;22699;51.034;3.730;2022-08-18T00:18:55;90.15;;;71.30;;
36715;SDS011;22699;51.034;3.730;2022-08-18T00:21:21;85.20;;;67.32;;
36715;SDS011;22699;51.034;3.730;2022-08-18T00:23:47;85.53;;;63.72;;
36715;SDS011;22699;51.034;3.730;2022-08-18T00:26:12;83.85;;;68.30;;
36715;SDS011;22699;51.034;3.730;2022-08-18T00:28:38;77.13;;;62.72;;
36715;SDS011;22699;51.034;3.730;2022-08-18T00:31:05;78.60;;;61.80;;
36715;SDS011;22699;51.034;3.730;2022-08-18T00:33:30;73.03;;;62.10;;
36715;SDS011;22699;51.034;3.730;2022-08-18T00:35:56;73.18;;;61.15;;
36715;SDS011;22699;51.034;3.730;2022-08-18T00:38:22;72.60;;;60.53;;
36715;SDS011;22699;51.034;3.730;2022-08-18T00:40:48;71.20;;;58.13;;
36715;SDS011;22699;51.034;3.730;2022-08-18T00:43:22;76.40;;;60.78;;
36715;SDS011;22699;51.034;3.730;2022-08-18T00:45:56;73.43;;;62.17;;
36715;SDS011;22699;51.034;3.730;2022-08-18T00:48:22;73.10;;;60.63;;
36715;SDS011;22699;51.034;3.730;2022-08-18T00:50:55;74.25;;;59.33;;
36715;SDS011;22699;51.034;3.730;2022-08-18T00:53:30;78.00;;;61.10;;
36715;SDS011;22699;51.034;3.730;2022-08-18T00:56:02;80.38;;;65.10;;
36715;SDS011;22699;51.034;3.730;2022-08-18T00:58:51;80.45;;;63.30;;
36715;SDS011;22699;51.034;3.730;2022-08-18T01:01:23;84.97;;;64.35;;
36715;SDS011;22699;51.034;3.730;2022-08-18T01:03:53;84.80;;;64.57;;
36715;SDS011;22699;51.034;3.730;2022-08-18T01:06:29;74.03;;;59.65;;
36715;SDS011;22699;51.034;3.730;2022-08-18T01:09:01;78.30;;;64.03;;
36715;SDS011;22699;51.034;3.730;2022-08-18T01:11:27;80.35;;;63.30;;
36715;SDS011;22699;51.034;3.730;2022-08-18T01:13:53;83.40;;;65.57;;
36715;SDS011;22699;51.034;3.730;2022-08-18T01:16:19;74.47;;;59.00;;
36715;SDS011;22699;51.034;3.730;2022-08-18T01:19:04;72.60;;;58.03;;
36715;SDS011;22699;51.034;3.730;2022-08-18T01:21:50;79.93;;;61.40;;
36715;SDS011;22699;51.034;3.730;2022-08-18T01:24:26;79.75;;;62.75;;
36715;SDS011;22699;51.034;3.730;2022-08-18T01:27:14;76.15;;;59.75;;
36715;SDS011;22699;51.034;3.730;2022-08-18T01:29:43;77.95;;;60.67;;
36715;SDS011;22699;51.034;3.730;2022-08-18T01:32:10;79.55;;;62.58;;
36715;SDS011;22699;51.034;3.730;2022-08-18T01:34:40;87.25;;;63.72;;
36715;SDS011;22699;51.034;3.730;2022-08-18T01:37:06;85.20;;;65.25;;
36715;SDS011;22699;51.034;3.730;2022-08-18T01:39:31;80.80;;;64.50;;
36715;SDS011;22699;51.034;3.730;2022-08-18T01:41:58;91.63;;;68.57;;
36715;SDS011;22699;51.034;3.730;2022-08-18T01:44:23;86.32;;;65.28;;
36715;SDS011;22699;51.034;3.730;2022-08-18T01:46:49;90.78;;;67.15;;
36715;SDS011;22699;51.034;3.730;2022-08-18T01:49:17;88.32;;;67.72;;
36715;SDS011;22699;51.034;3.730;2022-08-18T01:51:43;89.75;;;68.50;;
36715;SDS011;22699;51.034;3.730;2022-08-18T01:54:10;82.90;;;64.30;;
36715;SDS011;22699;51.034;3.730;2022-08-18T01:56:38;80.25;;;61.03;;
36715;SDS011;22699;51.034;3.730;2022-08-18T01:59:04;80.45;;;59.53;;
36715;SDS011;22699;51.034;3.730;2022-08-18T02:01:37;81.20;;;62.60;;
36715;SDS011;22699;51.034;3.730;2022-08-18T02:04:04;84.47;;;62.58;;
36715;SDS011;22699;51.034;3.730;2022-08-18T02:06:31;85.18;;;63.35;;
36715;SDS011;22699;51.034;3.730;2022-08-18T02:08:57;88.05;;;64.35;;
36715;SDS011;22699;51.034;3.730;2022-08-18T02:11:23;84.40;;;65.28;;
36715;SDS011;22699;51.034;3.730;2022-08-18T02:13:48;78.03;;;59.55;;
36715;SDS011;22699;51.034;3.730;2022-08-18T02:16:14;81.97;;;62.72;;
36715;SDS011;22699;51.034;3.730;2022-08-18T02:18:41;84.20;;;63.90;;
36715;SDS011;22699;51.034;3.730;2022-08-18T02:23:34;73.45;;;59.13;;
36715;SDS011;22699;51.034;3.730;2022-08-18T02:26:03;74.15;;;57.85;;
36715;SDS011;22699;51.034;3.730;2022-08-18T02:28:34;68.45;;;57.08;;
36715;SDS011;22699;51.034;3.730;2022-08-18T02:31:04;69.50;;;56.35;;
36715;SDS011;22699;51.034;3.730;2022-08-18T02:33:34;73.15;;;57.67;;
36715;SDS011;22699;51.034;3.730;2022-08-18T02:36:00;80.68;;;56.83;;
36715;SDS011;22699;51.034;3.730;2022-08-18T02:38:26;100.15;;;60.47;;
36715;SDS011;22699;51.034;3.730;2022-08-18T02:40:58;74.00;;;57.05;;
36715;SDS011;22699;51.034;3.730;2022-08-18T02:43:29;149.80;;;62.25;;
36715;SDS011;22699;51.034;3.730;2022-08-18T02:45:55;161.70;;;60.50;;
36715;SDS011;22699;51.034;3.730;2022-08-18T02:48:22;84.55;;;59.47;;
36715;SDS011;22699;51.034;3.730;2022-08-18T02:51:02;97.57;;;59.97;;
36715;SDS011;22699;51.034;3.730;2022-08-18T02:53:33;197.95;;;61.47;;
36715;SDS011;22699;51.034;3.730;2022-08-18T02:56:10;362.70;;;66.85;;
36715;SDS011;22699;51.034;3.730;2022-08-18T02:58:42;123.97;;;58.63;;
36715;SDS011;22699;51.034;3.730;2022-08-18T03:01:08;253.93;;;60.88;;
36715;SDS011;22699;51.034;3.730;2022-08-18T03:03:34;120.63;;;59.20;;
36715;SDS011;22699;51.034;3.730;2022-08-18T03:06:00;132.68;;;58.85;;
36715;SDS011;22699;51.034;3.730;2022-08-18T03:08:26;193.23;;;57.60;;
36715;SDS011;22699;51.034;3.730;2022-08-18T03:10:51;122.55;;;54.58;;
36715;SDS011;22699;51.034;3.730;2022-08-18T03:13:18;151.85;;;57.28;;
36715;SDS011;22699;51.034;3.730;2022-08-18T03:15:45;65.15;;;54.70;;
36715;SDS011;22699;51.034;3.730;2022-08-18T03:18:11;130.50;;;56.00;;
36715;SDS011;22699;51.034;3.730;2022-08-18T03:20:37;99.65;;;55.08;;
36715;SDS011;22699;51.034;3.730;2022-08-18T03:23:03;141.32;;;57.38;;
36715;SDS011;22699;51.034;3.730;2022-08-18T03:25:29;116.28;;;53.78;;
36715;SDS011;22699;51.034;3.730;2022-08-18T03:27:55;136.50;;;53.22;;
36715;SDS011;22699;51.034;3.730;2022-08-18T03:30:20;238.35;;;56.35;;
36715;SDS011;22699;51.034;3.730;2022-08-18T03:32:47;140.90;;;52.40;;
36715;SDS011;22699;51.034;3.730;2022-08-18T03:35:14;73.50;;;48.55;;
36715;SDS011;22699;51.034;3.730;2022-08-18T03:37:40;75.82;;;51.20;;
36715;SDS011;22699;51.034;3.730;2022-08-18T03:40:06;86.75;;;55.13;;
36715;SDS011;22699;51.034;3.730;2022-08-18T03:42:34;74.10;;;53.80;;
36715;SDS011;22699;51.034;3.730;2022-08-18T03:45:00;65.38;;;50.90;;
36715;SDS011;22699;51.034;3.730;2022-08-18T03:47:26;63.17;;;51.00;;
36715;SDS011;22699;51.034;3.730;2022-08-18T03:49:52;60.25;;;50.13;;
36715;SDS011;22699;51.034;3.730;2022-08-18T03:52:19;59.28;;;50.50;;
36715;SDS011;22699;51.034;3.730;2022-08-18T03:54:44;62.33;;;50.50;;
36715;SDS011;22699;51.034;3.730;2022-08-18T03:57:10;59.92;;;49.38;;
36715;SDS011;22699;51.034;3.730;2022-08-18T03:59:37;61.70;;;51.20;;
36715;SDS011;22699;51.034;3.730;2022-08-18T04:02:06;65.68;;;51.92;;
36715;SDS011;22699;51.034;3.730;2022-08-18T04:04:32;66.13;;;51.15;;
36715;SDS011;22699;51.034;3.730;2022-08-18T04:06:59;60.10;;;50.45;;
36715;SDS011;22699;51.034;3.730;2022-08-18T04:09:28;71.57;;;55.25;;
36715;SDS011;22699;51.034;3.730;2022-08-18T04:11:56;73.32;;;56.47;;
36715;SDS011;22699;51.034;3.730;2022-08-18T04:14:24;74.15;;;56.08;;
36715;SDS011;22699;51.034;3.730;2022-08-18T04:16:53;71.55;;;54.83;;
36715;SDS011;22699;51.034;3.730;2022-08-18T04:19:19;76.43;;;56.03;;
36715;SDS011;22699;51.034;3.730;2022-08-18T04:21:45;76.88;;;56.55;;
36715;SDS011;22699;51.034;3.730;2022-08-18T04:24:12;73.57;;;57.05;;
36715;SDS011;22699;51.034;3.730;2022-08-18T04:26:40;67.50;;;51.58;;
36715;SDS011;22699;51.034;3.730;2022-08-18T04:29:08;72.75;;;53.55;;
36715;SDS011;22699;51.034;3.730;2022-08-18T04:31:34;67.35;;;52.60;;
36715;SDS011;22699;51.034;3.730;2022-08-18T04:34:01;78.90;;;51.20;;
36715;SDS011;22699;51.034;3.730;2022-08-18T04:36:28;74.63;;;51.92;;
36715;SDS011;22699;51.034;3.730;2022-08-18T04:38:55;71.22;;;52.05;;
36715;SDS011;22699;51.034;3.730;2022-08-18T04:41:23;61.97;;;50.08;;
36715;SDS011;22699;51.034;3.730;2022-08-18T04:43:51;82.50;;;53.22;;
36715;SDS011;22699;51.034;3.730;2022-08-18T04:46:23;66.43;;;51.65;;
36715;SDS011;22699;51.034;3.730;2022-08-18T04:48:50;61.13;;;48.58;;
36715;SDS011;22699;51.034;3.730;2022-08-18T04:51:16;72.00;;;52.03;;
36715;SDS011;22699;51.034;3.730;2022-08-18T04:53:43;70.20;;;53.10;;
36715;SDS011;22699;51.034;3.730;2022-08-18T04:56:27;67.70;;;52.58;;
36715;SDS011;22699;51.034;3.730;2022-08-18T04:58:59;66.18;;;51.90;;
36715;SDS011;22699;51.034;3.730;2022-08-18T05:01:31;59.00;;;47.97;;
36715;SDS011;22699;51.034;3.730;2022-08-18T05:03:59;56.80;;;48.00;;
36715;SDS011;22699;51.034;3.730;2022-08-18T05:06:25;57.17;;;47.67;;
36715;SDS011;22699;51.034;3.730;2022-08-18T05:08:53;62.15;;;49.00;;
36715;SDS011;22699;51.034;3.730;2022-08-18T05:11:20;59.83;;;47.08;;
36715;SDS011;22699;51.034;3.730;2022-08-18T05:13:52;48.05;;;42.85;;
36715;SDS011;22699;51.034;3.730;2022-08-18T05:16:21;59.78;;;44.00;;
36715;SDS011;22699;51.034;3.730;2022-08-18T05:18:46;56.55;;;42.92;;
36715;SDS011;22699;51.034;3.730;2022-08-18T05:21:12;59.22;;;43.33;;
36715;SDS011;22699;51.034;3.730;2022-08-18T05:23:40;56.42;;;43.38;;
36715;SDS011;22699;51.034;3.730;2022-08-18T05:26:11;91.55;;;53.90;;
36715;SDS011;22699;51.034;3.730;2022-08-18T05:28:40;51.10;;;43.37;;
36715;SDS011;22699;51.034;3.730;2022-08-18T05:31:09;56.55;;;44.22;;
36715;SDS011;22699;51.034;3.730;2022-08-18T05:33:41;70.88;;;43.88;;
36715;SDS011;22699;51.034;3.730;2022-08-18T05:41:59;54.65;;;40.47;;
36715;SDS011;22699;51.034;3.730;2022-08-18T05:44:43;46.53;;;39.22;;
36715;SDS011;22699;51.034;3.730;2022-08-18T05:47:16;56.90;;;41.90;;
36715;SDS011;22699;51.034;3.730;2022-08-18T05:49:43;49.60;;;38.75;;
36715;SDS011;22699;51.034;3.730;2022-08-18T05:52:49;51.75;;;40.25;;
36715;SDS011;22699;51.034;3.730;2022-08-18T05:58:21;44.42;;;38.88;;
36715;SDS011;22699;51.034;3.730;2022-08-18T06:00:56;40.20;;;36.00;;
36715;SDS011;22699;51.034;3.730;2022-08-18T06:03:36;42.40;;;36.95;;
36715;SDS011;22699;51.034;3.730;2022-08-18T06:06:08;66.82;;;37.50;;
36715;SDS011;22699;51.034;3.730;2022-08-18T06:08:39;41.22;;;36.88;;
36715;SDS011;22699;51.034;3.730;2022-08-18T06:11:09;37.35;;;33.47;;
36715;SDS011;22699;51.034;3.730;2022-08-18T06:13:37;39.13;;;35.13;;
36715;SDS011;22699;51.034;3.730;2022-08-18T06:16:08;39.00;;;35.07;;
36715;SDS011;22699;51.034;3.730;2022-08-18T06:29:39;39.92;;;34.47;;
36715;SDS011;22699;51.034;3.730;2022-08-18T06:40:59;38.92;;;34.88;;
36715;SDS011;22699;51.034;3.730;2022-08-18T06:43:36;44.50;;;34.80;;
36715;SDS011;22699;51.034;3.730;2022-08-18T06:46:08;36.13;;;32.58;;
36715;SDS011;22699;51.034;3.730;2022-08-18T06:48:41;40.60;;;35.20;;
36715;SDS011;22699;51.034;3.730;2022-08-18T06:51:16;35.42;;;31.90;;
36715;SDS011;22699;51.034;3.730;2022-08-18T06:54:04;39.00;;;34.85;;
36715;SDS011;22699;51.034;3.730;2022-08-18T07:01:51;41.72;;;37.38;;
36715;SDS011;22699;51.034;3.730;2022-08-18T07:04:32;41.42;;;37.15;;
36715;SDS011;22699;51.034;3.730;2022-08-18T07:10:00;38.58;;;34.78;;
36715;SDS011;22699;51.034;3.730;2022-08-18T07:12:28;42.28;;;37.90;;
36715;SDS011;22699;51.034;3.730;2022-08-18T07:14:55;41.75;;;37.38;;
36715;SDS011;22699;51.034;3.730;2022-08-18T07:22:31;41.25;;;36.83;;
36715;SDS011;22699;51.034;3.730;2022-08-18T07:25:18;36.80;;;32.92;;
36715;SDS011;22699;51.034;3.730;2022-08-18T07:27:56;33.88;;;30.30;;
36715;SDS011;22699;51.034;3.730;2022-08-18T07:30:36;33.92;;;30.52;;
36715;SDS011;22699;51.034;3.730;2022-08-18T07:35:59;26.45;;;23.73;;
36715;SDS011;22699;51.034;3.730;2022-08-18T07:38:33;26.77;;;23.52;;
36715;SDS011;22699;51.034;3.730;2022-08-18T07:44:04;22.80;;;20.35;;
36715;SDS011;22699;51.034;3.730;2022-08-18T07:49:26;18.58;;;16.73;;
36715;SDS011;22699;51.034;3.730;2022-08-18T08:00:59;25.35;;;23.15;;
36715;SDS011;22699;51.034;3.730;2022-08-18T08:12:03;31.25;;;28.27;;
36715;SDS011;22699;51.034;3.730;2022-08-18T08:14:43;26.15;;;23.52;;
36715;SDS011;22699;51.034;3.730;2022-08-18T08:30:15;27.80;;;24.95;;
36715;SDS011;22699;51.034;3.730;2022-08-18T08:35:35;33.13;;;29.83;;
36715;SDS011;22699;51.034;3.730;2022-08-18T08:41:12;32.13;;;28.63;;
36715;SDS011;22699;51.034;3.730;2022-08-18T08:44:07;34.65;;;31.27;;
36715;SDS011;22699;51.034;3.730;2022-08-18T08:47:20;33.13;;;29.80;;
36715;SDS011;22699;51.034;3.730;2022-08-18T08:52:28;28.75;;;26.05;;
36715;SDS011;22699;51.034;3.730;2022-08-18T08:55:11;28.85;;;26.08;;
36715;SDS011;22699;51.034;3.730;2022-08-18T09:00:43;25.27;;;22.95;;
36715;SDS011;22699;51.034;3.730;2022-08-18T09:06:03;21.60;;;19.40;;
36715;SDS011;22699;51.034;3.730;2022-08-18T09:11:23;19.38;;;17.67;;
36715;SDS011;22699;51.034;3.730;2022-08-18T09:17:31;23.65;;;21.48;;
36715;SDS011;22699;51.034;3.730;2022-08-18T09:23:18;27.90;;;25.10;;
36715;SDS011;22699;51.034;3.730;2022-08-18T09:25:50;29.23;;;26.35;;
36715;SDS011;22699;51.034;3.730;2022-08-18T09:41:57;31.52;;;28.63;;
36715;SDS011;22699;51.034;3.730;2022-08-18T09:57:31;30.90;;;28.15;;
36715;SDS011;22699;51.034;3.730;2022-08-18T10:07:37;28.60;;;25.83;;
36715;SDS011;22699;51.034;3.730;2022-08-18T10:21:10;24.73;;;22.08;;
36715;SDS011;22699;51.034;3.730;2022-08-18T10:23:43;25.95;;;23.42;;
36715;SDS011;22699;51.034;3.730;2022-08-18T10:36:53;18.00;;;16.33;;
36715;SDS011;22699;51.034;3.730;2022-08-18T10:39:25;18.63;;;15.88;;
36715;SDS011;22699;51.034;3.730;2022-08-18T10:44:50;16.42;;;14.93;;
36715;SDS011;22699;51.034;3.730;2022-08-18T10:47:28;17.17;;;15.48;;
36715;SDS011;22699;51.034;3.730;2022-08-18T10:49:54;18.52;;;16.73;;
36715;SDS011;22699;51.034;3.730;2022-08-18T11:00:18;21.15;;;19.30;;
36715;SDS011;22699;51.034;3.730;2022-08-18T11:05:33;16.85;;;15.35;;
36715;SDS011;22699;51.034;3.730;2022-08-18T11:08:00;20.27;;;18.55;;
36715;SDS011;22699;51.034;3.730;2022-08-18T11:16:00;14.32;;;12.95;;
36715;SDS011;22699;51.034;3.730;2022-08-18T11:18:41;15.73;;;14.02;;
36715;SDS011;22699;51.034;3.730;2022-08-18T11:26:48;12.27;;;11.15;;
36715;SDS011;22699;51.034;3.730;2022-08-18T11:32:40;14.15;;;12.70;;
36715;SDS011;22699;51.034;3.730;2022-08-18T11:34:41;12.75;;;11.57;;
36715;SDS011;22699;51.034;3.730;2022-08-18T11:39:52;11.32;;;9.35;;
36715;SDS011;22699;51.034;3.730;2022-08-18T11:42:25;11.95;;;10.27;;
36715;SDS011;22699;51.034;3.730;2022-08-18T11:44:53;11.35;;;9.57;;
36715;SDS011;22699;51.034;3.730;2022-08-18T11:47:26;13.43;;;12.32;;
36715;SDS011;22699;51.034;3.730;2022-08-18T11:50:25;13.23;;;12.02;;
36715;SDS011;22699;51.034;3.730;2022-08-18T11:52:51;15.10;;;10.80;;
36715;SDS011;22699;51.034;3.730;2022-08-18T11:55:19;11.65;;;10.43;;
36715;SDS011;22699;51.034;3.730;2022-08-18T11:57:52;9.80;;;8.90;;
36715;SDS011;22699;51.034;3.730;2022-08-18T12:05:47;8.88;;;7.10;;
36715;SDS011;22699;51.034;3.730;2022-08-18T12:08:33;9.00;;;8.13;;
36715;SDS011;22699;51.034;3.730;2022-08-18T12:11:04;8.45;;;6.68;;
36715;SDS011;22699;51.034;3.730;2022-08-18T12:13:42;9.77;;;8.77;;
36715;SDS011;22699;51.034;3.730;2022-08-18T12:16:55;9.68;;;7.47;;
36715;SDS011;22699;51.034;3.730;2022-08-18T12:19:07;6.93;;;6.22;;
36715;SDS011;22699;51.034;3.730;2022-08-18T12:24:07;7.38;;;6.05;;
36715;SDS011;22699;51.034;3.730;2022-08-18T12:26:37;10.32;;;6.80;;
36715;SDS011;22699;51.034;3.730;2022-08-18T12:29:02;10.05;;;5.80;;
36715;SDS011;22699;51.034;3.730;2022-08-18T12:31:28;8.00;;;7.20;;
36715;SDS011;22699;51.034;3.730;2022-08-18T12:33:54;6.18;;;5.57;;
36715;SDS011;22699;51.034;3.730;2022-08-18T12:36:19;6.78;;;6.15;;
36715;SDS011;22699;51.034;3.730;2022-08-18T12:38:45;11.13;;;7.05;;
36715;SDS011;22699;51.034;3.730;2022-08-18T12:41:10;6.32;;;5.38;;
36715;SDS011;22699;51.034;3.730;2022-08-18T12:43:39;6.90;;;6.07;;
36715;SDS011;22699;51.034;3.730;2022-08-18T12:46:04;6.40;;;5.25;;
36715;SDS011;22699;51.034;3.730;2022-08-18T12:48:30;6.10;;;5.53;;
36715;SDS011;22699;51.034;3.730;2022-08-18T12:50:56;7.07;;;6.03;;
36715;SDS011;22699;51.034;3.730;2022-08-18T12:53:23;11.68;;;7.18;;
36715;SDS011;22699;51.034;3.730;2022-08-18T12:55:50;10.90;;;6.85;;
36715;SDS011;22699;51.034;3.730;2022-08-18T12:58:15;7.43;;;6.00;;
36715;SDS011;22699;51.034;3.730;2022-08-18T13:00:41;6.43;;;5.10;;
36715;SDS011;22699;51.034;3.730;2022-08-18T13:03:06;6.38;;;5.47;;
36715;SDS011;22699;51.034;3.730;2022-08-18T13:05:32;8.75;;;5.53;;
36715;SDS011;22699;51.034;3.730;2022-08-18T13:08:00;5.15;;;4.57;;
36715;SDS011;22699;51.034;3.730;2022-08-18T13:10:27;5.43;;;4.72;;
36715;SDS011;22699;51.034;3.730;2022-08-18T13:12:53;4.85;;;4.20;;
36715;SDS011;22699;51.034;3.730;2022-08-18T13:15:18;3.85;;;3.50;;
36715;SDS011;22699;51.034;3.730;2022-08-18T13:17:44;5.25;;;4.75;;
36715;SDS011;22699;51.034;3.730;2022-08-18T13:20:11;4.90;;;3.67;;
36715;SDS011;22699;51.034;3.730;2022-08-18T13:22:39;6.20;;;3.95;;
36715;SDS011;22699;51.034;3.730;2022-08-18T13:25:05;5.05;;;4.03;;
36715;SDS011;22699;51.034;3.730;2022-08-18T13:27:34;8.60;;;4.53;;
36715;SDS011;22699;51.034;3.730;2022-08-18T13:30:01;5.60;;;5.05;;
36715;SDS011;22699;51.034;3.730;2022-08-18T13:32:29;5.72;;;5.22;;
36715;SDS011;22699;51.034;3.730;2022-08-18T13:34:55;6.43;;;5.80;;
36715;SDS011;22699;51.034;3.730;2022-08-18T13:37:20;6.78;;;5.60;;
36715;SDS011;22699;51.034;3.730;2022-08-18T13:39:47;6.93;;;5.80;;
36715;SDS011;22699;51.034;3.730;2022-08-18T13:42:12;7.32;;;4.97;;
36715;SDS011;22699;51.034;3.730;2022-08-18T13:44:38;8.52;;;5.85;;
36715;SDS011;22699;51.034;3.730;2022-08-18T13:47:05;8.40;;;5.18;;
36715;SDS011;22699;51.034;3.730;2022-08-18T13:49:31;6.30;;;5.38;;
36715;SDS011;22699;51.034;3.730;2022-08-18T13:51:56;7.72;;;4.50;;
36715;SDS011;22699;51.034;3.730;2022-08-18T13:54:27;6.40;;;5.07;;
36715;SDS011;22699;51.034;3.730;2022-08-18T13:56:56;6.10;;;4.65;;
36715;SDS011;22699;51.034;3.730;2022-08-18T13:59:21;5.85;;;5.18;;
36715;SDS011;22699;51.034;3.730;2022-08-18T14:01:48;6.13;;;5.50;;
36715;SDS011;22699;51.034;3.730;2022-08-18T14:04:16;5.60;;;4.97;;
36715;SDS011;22699;51.034;3.730;2022-08-18T14:06:42;6.57;;;5.55;;
36715;SDS011;22699;51.034;3.730;2022-08-18T14:09:07;5.60;;;4.75;;
36715;SDS011;22699;51.034;3.730;2022-08-18T14:11:33;7.00;;;4.95;;
36715;SDS011;22699;51.034;3.730;2022-08-18T14:14:01;6.47;;;5.80;;
36715;SDS011;22699;51.034;3.730;2022-08-18T14:16:28;6.00;;;4.88;;
36715;SDS011;22699;51.034;3.730;2022-08-18T14:18:54;6.82;;;5.35;;
36715;SDS011;22699;51.034;3.730;2022-08-18T14:21:40;6.53;;;5.80;;
36715;SDS011;22699;51.034;3.730;2022-08-18T14:24:25;9.57;;;5.85;;
36715;SDS011;22699;51.034;3.730;2022-08-18T14:27:10;7.05;;;6.45;;
36715;SDS011;22699;51.034;3.730;2022-08-18T14:29:36;6.00;;;5.38;;
36715;SDS011;22699;51.034;3.730;2022-08-18T14:32:03;8.40;;;5.88;;
36715;SDS011;22699;51.034;3.730;2022-08-18T14:34:29;6.03;;;5.43;;
36715;SDS011;22699;51.034;3.730;2022-08-18T14:36:54;6.18;;;5.57;;
36715;SDS011;22699;51.034;3.730;2022-08-18T14:39:20;6.63;;;5.68;;
36715;SDS011;22699;51.034;3.730;2022-08-18T14:41:46;6.70;;;6.10;;
36715;SDS011;22699;51.034;3.730;2022-08-18T14:44:11;6.72;;;5.45;;
36715;SDS011;22699;51.034;3.730;2022-08-18T14:46:38;6.22;;;5.63;;
36715;SDS011;22699;51.034;3.730;2022-08-18T14:49:04;5.30;;;4.80;;
36715;SDS011;22699;51.034;3.730;2022-08-18T14:51:30;4.97;;;4.47;;
36715;SDS011;22699;51.034;3.730;2022-08-18T14:53:56;6.07;;;5.47;;
36715;SDS011;22699;51.034;3.730;2022-08-18T14:56:24;7.63;;;4.68;;
36715;SDS011;22699;51.034;3.730;2022-08-18T14:58:50;6.30;;;5.70;;
36715;SDS011;22699;51.034;3.730;2022-08-18T15:01:15;7.60;;;6.80;;
36715;SDS011;22699;51.034;3.730;2022-08-18T15:03:42;7.45;;;6.75;;
36715;SDS011;22699;51.034;3.730;2022-08-18T15:06:08;7.88;;;7.03;;
36715;SDS011;22699;51.034;3.730;2022-08-18T15:08:35;7.93;;;6.18;;
36715;SDS011;22699;51.034;3.730;2022-08-18T15:11:01;10.77;;;7.32;;
36715;SDS011;22699;51.034;3.730;2022-08-18T15:13:29;8.65;;;5.45;;
36715;SDS011;22699;51.034;3.730;2022-08-18T15:15:56;7.93;;;5.82;;
36715;SDS011;22699;51.034;3.730;2022-08-18T15:18:21;7.35;;;6.38;;
36715;SDS011;22699;51.034;3.730;2022-08-18T15:20:47;6.18;;;5.55;;
36715;SDS011;22699;51.034;3.730;2022-08-18T15:23:32;8.15;;;6.50;;
36715;SDS011;22699;51.034;3.730;2022-08-18T15:26:19;6.85;;;5.97;;
36715;SDS011;22699;51.034;3.730;2022-08-18T15:28:48;5.88;;;5.28;;
36715;SDS011;22699;51.034;3.730;2022-08-18T15:31:13;5.80;;;5.18;;
36715;SDS011;22699;51.034;3.730;2022-08-18T15:33:39;8.15;;;6.53;;
36715;SDS011;22699;51.034;3.730;2022-08-18T15:36:05;7.63;;;6.03;;
36715;SDS011;22699;51.034;3.730;2022-08-18T15:38:32;7.60;;;6.80;;
36715;SDS011;22699;51.034;3.730;2022-08-18T15:40:58;9.35;;;6.13;;
36715;SDS011;22699;51.034;3.730;2022-08-18T15:43:25;7.20;;;6.40;;
36715;SDS011;22699;51.034;3.730;2022-08-18T15:45:52;7.63;;;6.85;;
36715;SDS011;22699;51.034;3.730;2022-08-18T15:48:19;7.88;;;5.90;;
36715;SDS011;22699;51.034;3.730;2022-08-18T15:50:46;7.05;;;6.43;;
36715;SDS011;22699;51.034;3.730;2022-08-18T15:53:15;7.20;;;6.05;;
36715;SDS011;22699;51.034;3.730;2022-08-18T15:55:42;7.22;;;5.90;;
36715;SDS011;22699;51.034;3.730;2022-08-18T15:58:08;8.65;;;5.68;;
36715;SDS011;22699;51.034;3.730;2022-08-18T16:00:36;7.68;;;6.05;;
36715;SDS011;22699;51.034;3.730;2022-08-18T16:03:05;8.27;;;6.47;;
36715;SDS011;22699;51.034;3.730;2022-08-18T16:05:33;7.45;;;5.88;;
36715;SDS011;22699;51.034;3.730;2022-08-18T16:08:02;6.97;;;6.10;;
36715;SDS011;22699;51.034;3.730;2022-08-18T16:10:32;8.93;;;6.78;;
36715;SDS011;22699;51.034;3.730;2022-08-18T16:13:00;6.88;;;6.25;;
36715;SDS011;22699;51.034;3.730;2022-08-18T16:15:28;10.55;;;7.25;;
36715;SDS011;22699;51.034;3.730;2022-08-18T16:17:58;7.03;;;6.32;;
36715;SDS011;22699;51.034;3.730;2022-08-18T16:20:23;9.20;;;6.95;;
36715;SDS011;22699;51.034;3.730;2022-08-18T16:22:50;6.05;;;5.45;;
36715;SDS011;22699;51.034;3.730;2022-08-18T16:25:16;8.48;;;7.60;;
36715;SDS011;22699;51.034;3.730;2022-08-18T16:27:42;8.95;;;7.65;;
36715;SDS011;22699;51.034;3.730;2022-08-18T16:30:09;7.65;;;6.95;;
36715;SDS011;22699;51.034;3.730;2022-08-18T16:32:37;6.43;;;5.93;;
36715;SDS011;22699;51.034;3.730;2022-08-18T16:35:03;8.98;;;7.03;;
36715;SDS011;22699;51.034;3.730;2022-08-18T16:37:29;6.95;;;6.32;;
36715;SDS011;22699;51.034;3.730;2022-08-18T16:39:55;6.60;;;5.95;;
36715;SDS011;22699;51.034;3.730;2022-08-18T16:42:21;10.38;;;6.22;;
36715;SDS011;22699;51.034;3.730;2022-08-18T16:44:47;6.68;;;5.82;;
36715;SDS011;22699;51.034;3.730;2022-08-18T16:47:12;7.03;;;6.38;;
36715;SDS011;22699;51.034;3.730;2022-08-18T16:49:41;5.25;;;4.82;;
36715;SDS011;22699;51.034;3.730;2022-08-18T16:52:09;6.90;;;6.07;;
36715;SDS011;22699;51.034;3.730;2022-08-18T16:54:35;7.90;;;6.88;;
36715;SDS011;22699;51.034;3.730;2022-08-18T16:57:01;8.90;;;7.40;;
36715;SDS011;22699;51.034;3.730;2022-08-18T16:59:26;9.63;;;7.60;;
36715;SDS011;22699;51.034;3.730;2022-08-18T17:02:10;7.07;;;6.32;;
36715;SDS011;22699;51.034;3.730;2022-08-18T17:04:54;10.63;;;6.57;;
36715;SDS011;22699;51.034;3.730;2022-08-18T17:07:27;9.10;;;6.47;;
36715;SDS011;22699;51.034;3.730;2022-08-18T17:09:55;8.10;;;6.30;;
36715;SDS011;22699;51.034;3.730;2022-08-18T17:12:21;6.97;;;6.30;;
36715;SDS011;22699;51.034;3.730;2022-08-18T17:14:48;7.25;;;6.55;;
36715;SDS011;22699;51.034;3.730;2022-08-18T17:17:14;7.18;;;6.47;;
36715;SDS011;22699;51.034;3.730;2022-08-18T17:27:13;8.95;;;8.13;;
36715;SDS011;22699;51.034;3.730;2022-08-18T17:32:53;8.60;;;7.80;;
36715;SDS011;22699;51.034;3.730;2022-08-18T17:35:35;8.27;;;7.47;;
36715;SDS011;22699;51.034;3.730;2022-08-18T17:38:15;7.35;;;6.65;;
36715;SDS011;22699;51.034;3.730;2022-08-18T17:40:52;8.73;;;7.97;;
36715;SDS011;22699;51.034;3.730;2022-08-18T17:43:21;8.00;;;7.20;;
36715;SDS011;22699;51.034;3.730;2022-08-18T17:46:03;7.75;;;6.40;;
36715;SDS011;22699;51.034;3.730;2022-08-18T17:48:48;6.25;;;5.75;;
36715;SDS011;22699;51.034;3.730;2022-08-18T17:51:40;6.78;;;5.90;;
36715;SDS011;22699;51.034;3.730;2022-08-18T17:56:52;7.77;;;7.03;;
36715;SDS011;22699;51.034;3.730;2022-08-18T18:02:12;7.38;;;6.68;;
36715;SDS011;22699;51.034;3.730;2022-08-18T18:04:41;7.53;;;6.28;;
36715;SDS011;22699;51.034;3.730;2022-08-18T18:10:21;8.82;;;7.13;;
36715;SDS011;22699;51.034;3.730;2022-08-18T18:13:04;7.33;;;6.63;;
36715;SDS011;22699;51.034;3.730;2022-08-18T18:18:18;7.22;;;6.63;;
36715;SDS011;22699;51.034;3.730;2022-08-18T18:21:00;7.93;;;7.13;;
36715;SDS011;22699;51.034;3.730;2022-08-18T18:23:44;6.97;;;6.38;;
36715;SDS011;22699;51.034;3.730;2022-08-18T18:36:55;7.97;;;7.05;;
36715;SDS011;22699;51.034;3.730;2022-08-18T18:39:28;8.30;;;7.20;;
36715;SDS011;22699;51.034;3.730;2022-08-18T18:42:07;7.55;;;6.80;;